createdAt,value
2022-09-30T00:01:27.031Z,101106.00
2022-09-30T00:04:00.774Z,101095.00
2022-09-30T00:06:34.231Z,101103.00
2022-09-30T00:09:07.100Z,101075.00
2022-09-30T00:11:41.253Z,101071.00
2022-09-30T00:14:16.008Z,101076.00
2022-09-30T00:16:48.960Z,101065.00
2022-09-30T00:19:21.719Z,101060.00
2022-09-30T00:21:54.711Z,101057.00
2022-09-30T00:24:27.686Z,101055.00
2022-09-30T00:27:00.630Z,101044.00
2022-09-30T00:29:33.501Z,101040.00
2022-09-30T00:32:06.540Z,101027.00
2022-09-30T00:34:39.689Z,101028.00
2022-09-30T00:37:13.598Z,101038.00
2022-09-30T00:39:46.563Z,101041.00
2022-09-30T00:42:21.066Z,101034.00
2022-09-30T00:45:12.426Z,101036.00
2022-09-30T00:47:58.915Z,101034.00
2022-09-30T00:50:44.315Z,101039.00
2022-09-30T00:53:24.690Z,101033.00
2022-09-30T00:56:05.331Z,101030.00
2022-09-30T00:58:49.260Z,101027.00
2022-09-30T01:01:22.969Z,101037.00
2022-09-30T01:04:06.651Z,101047.00
2022-09-30T01:06:39.900Z,101046.00
2022-09-30T01:09:13.578Z,101049.00
2022-09-30T01:11:46.746Z,101054.00
2022-09-30T01:14:27.594Z,101049.00
2022-09-30T01:17:19.087Z,101048.00
2022-09-30T01:20:23.722Z,101060.00
2022-09-30T01:23:26.347Z,101068.00
2022-09-30T01:26:13.692Z,101060.00
2022-09-30T01:29:05.087Z,101061.00
2022-09-30T01:31:59.083Z,101062.00
2022-09-30T01:34:56.459Z,101058.00
2022-09-30T01:37:45.884Z,101063.00
2022-09-30T01:40:29.473Z,101056.00
2022-09-30T01:43:11.140Z,101057.00
2022-09-30T01:45:52.206Z,101069.00
2022-09-30T01:48:29.946Z,101063.00
2022-09-30T01:51:05.680Z,101059.00
2022-09-30T01:53:46.837Z,101059.00
2022-09-30T01:56:21.497Z,101061.00
2022-09-30T01:58:59.561Z,101061.00
2022-09-30T02:01:37.320Z,101058.00
2022-09-30T02:04:17.007Z,101060.00
2022-09-30T02:06:52.121Z,101054.00
2022-09-30T02:09:27.014Z,101055.00
2022-09-30T02:12:01.988Z,101047.00
2022-09-30T02:14:39.975Z,101037.00
2022-09-30T02:17:26.656Z,101043.00
2022-09-30T02:20:08.026Z,101033.00
2022-09-30T02:22:46.564Z,101028.00
2022-09-30T02:25:33.056Z,101025.00
2022-09-30T02:28:09.048Z,101025.00
2022-09-30T02:30:45.121Z,101026.00
2022-09-30T02:33:23.045Z,101020.00
2022-09-30T02:36:04.823Z,101029.00
2022-09-30T02:38:40.038Z,101023.00
2022-09-30T02:41:15.108Z,101022.00
2022-09-30T02:43:48.278Z,101016.00
2022-09-30T02:46:26.093Z,101011.00
2022-09-30T02:49:22.392Z,101007.00
2022-09-30T02:52:00.554Z,101018.00
2022-09-30T02:54:41.619Z,101018.00
2022-09-30T02:57:38.804Z,101014.00
2022-09-30T03:00:14.672Z,101019.00
2022-09-30T03:02:47.465Z,101012.00
2022-09-30T03:05:20.277Z,101020.00
2022-09-30T03:07:53.169Z,101006.00
2022-09-30T03:10:26.281Z,101008.00
2022-09-30T03:13:30.069Z,101017.00
2022-09-30T03:16:10.859Z,101023.00
2022-09-30T03:18:50.293Z,101030.00
2022-09-30T03:21:34.322Z,101017.00
2022-09-30T03:24:15.492Z,101015.00
2022-09-30T03:26:53.848Z,101015.00
2022-09-30T03:29:43.829Z,101024.00
2022-09-30T03:32:27.571Z,101006.00
2022-09-30T03:35:05.878Z,101006.00
2022-09-30T03:38:08.837Z,101004.00
2022-09-30T03:41:04.774Z,101004.00
2022-09-30T03:43:57.725Z,101016.00
2022-09-30T03:46:33.754Z,101005.00
2022-09-30T03:49:08.986Z,101011.00
2022-09-30T03:51:43.374Z,101005.00
2022-09-30T03:54:18.434Z,101009.00
2022-09-30T03:56:51.457Z,101002.00
2022-09-30T03:59:31.421Z,101011.00
2022-09-30T04:02:05.353Z,101012.00
2022-09-30T04:04:38.365Z,101010.00
2022-09-30T04:07:12.098Z,101014.00
2022-09-30T04:09:45.487Z,101009.00
2022-09-30T04:12:18.526Z,101004.00
2022-09-30T04:14:51.487Z,101013.00
2022-09-30T04:17:25.189Z,101008.00
2022-09-30T04:20:02.358Z,100995.00
2022-09-30T04:22:35.202Z,101006.00
2022-09-30T04:25:08.378Z,101004.00
2022-09-30T04:27:41.738Z,101000.00
2022-09-30T04:30:15.326Z,101000.00
2022-09-30T04:32:48.799Z,101003.00
2022-09-30T04:35:21.977Z,101011.00
2022-09-30T04:37:55.015Z,101011.00
2022-09-30T04:40:28.133Z,101014.00
2022-09-30T04:43:02.327Z,101011.00
2022-09-30T04:45:35.264Z,101004.00
2022-09-30T04:48:08.497Z,101011.00
2022-09-30T04:50:41.297Z,101009.00
2022-09-30T04:53:17.629Z,101005.00
2022-09-30T04:55:51.367Z,100998.00
2022-09-30T04:58:24.249Z,101002.00
2022-09-30T05:00:58.379Z,101018.00
2022-09-30T05:03:31.269Z,101011.00
2022-09-30T05:06:04.208Z,101014.00
2022-09-30T05:08:38.848Z,101021.00
2022-09-30T05:11:13.096Z,101024.00
2022-09-30T05:13:46.606Z,101029.00
2022-09-30T05:16:20.252Z,101027.00
2022-09-30T05:18:53.142Z,101024.00
2022-09-30T05:21:26.022Z,101022.00
2022-09-30T05:24:02.989Z,101017.00
2022-09-30T05:26:35.897Z,101012.00
2022-09-30T05:29:08.811Z,101022.00
2022-09-30T05:31:41.777Z,101029.00
2022-09-30T05:34:14.728Z,101029.00
2022-09-30T05:36:48.309Z,101033.00
2022-09-30T05:39:21.219Z,101027.00
2022-09-30T05:41:54.153Z,101025.00
2022-09-30T05:44:27.138Z,101029.00
2022-09-30T05:47:00.584Z,101031.00
2022-09-30T05:49:33.862Z,101030.00
2022-09-30T05:52:07.193Z,101028.00
2022-09-30T05:54:40.165Z,101031.00
2022-09-30T05:57:13.444Z,101029.00
2022-09-30T05:59:46.732Z,101026.00
2022-09-30T06:02:19.943Z,101037.00
2022-09-30T06:04:52.929Z,101038.00
2022-09-30T06:07:26.003Z,101041.00
2022-09-30T06:10:05.074Z,101037.00
2022-09-30T06:12:40.327Z,101041.00
2022-09-30T06:15:13.874Z,101040.00
2022-09-30T06:17:47.010Z,101034.00
2022-09-30T06:20:20.102Z,101043.00
2022-09-30T06:22:57.380Z,101032.00
2022-09-30T06:25:30.598Z,101036.00
2022-09-30T06:28:03.759Z,101035.00
2022-09-30T06:30:36.762Z,101040.00
2022-09-30T06:33:09.540Z,101042.00
2022-09-30T06:35:43.744Z,101048.00
2022-09-30T06:38:18.756Z,101055.00
2022-09-30T06:40:54.837Z,101054.00
2022-09-30T06:43:27.948Z,101054.00
2022-09-30T06:46:15.005Z,101056.00
2022-09-30T06:48:39.629Z,101057.00
2022-09-30T06:51:15.825Z,101060.00
2022-09-30T06:53:53.134Z,101057.00
2022-09-30T06:56:22.914Z,101054.00
2022-09-30T06:58:56.210Z,101066.00
2022-09-30T07:01:29.566Z,101068.00
2022-09-30T07:04:02.778Z,101067.00
2022-09-30T07:06:35.913Z,101068.00
2022-09-30T07:09:09.541Z,101069.00
2022-09-30T07:11:43.030Z,101076.00
2022-09-30T07:14:16.375Z,101083.00
2022-09-30T07:16:49.626Z,101079.00
2022-09-30T07:19:23.851Z,101083.00
2022-09-30T07:22:01.442Z,101089.00
2022-09-30T07:24:34.687Z,101099.00
2022-09-30T07:27:07.680Z,101091.00
2022-09-30T07:29:56.902Z,101100.00
2022-09-30T07:32:14.737Z,101102.00
2022-09-30T07:34:48.181Z,101101.00
2022-09-30T07:37:22.592Z,101107.00
2022-09-30T07:39:55.728Z,101099.00
2022-09-30T07:42:28.672Z,101115.00
2022-09-30T07:45:04.903Z,101116.00
2022-09-30T07:47:37.952Z,101117.00
2022-09-30T07:50:12.377Z,101117.00
2022-09-30T07:52:45.462Z,101112.00
2022-09-30T07:55:18.377Z,101117.00
2022-09-30T07:57:52.307Z,101115.00
2022-09-30T08:00:47.417Z,101114.00
2022-09-30T08:03:00.181Z,101108.00
2022-09-30T08:05:33.060Z,101109.00
2022-09-30T08:08:06.704Z,101115.00
2022-09-30T08:10:43.966Z,101122.00
2022-09-30T08:13:18.027Z,101123.00
2022-09-30T08:16:07.420Z,101127.00
2022-09-30T08:18:41.775Z,101116.00
2022-09-30T08:21:15.017Z,101122.00
2022-09-30T08:23:47.888Z,101122.00
2022-09-30T08:26:21.106Z,101122.00
2022-09-30T08:28:53.962Z,101122.00
2022-09-30T08:31:27.387Z,101128.00
2022-09-30T08:34:00.916Z,101117.00
2022-09-30T08:36:34.110Z,101122.00
2022-09-30T08:39:07.892Z,101120.00
2022-09-30T08:41:59.759Z,101116.00
2022-09-30T08:44:45.981Z,101115.00
2022-09-30T08:47:30.726Z,101122.00
2022-09-30T08:50:35.830Z,101116.00
2022-09-30T08:53:16.614Z,101121.00
2022-09-30T08:55:50.438Z,101120.00
2022-09-30T08:58:30.848Z,101122.00
2022-09-30T09:01:21.708Z,101126.00
2022-09-30T09:03:54.999Z,101123.00
2022-09-30T09:06:33.255Z,101120.00
2022-09-30T09:09:11.097Z,101110.00
2022-09-30T09:11:58.647Z,101121.00
2022-09-30T09:14:33.711Z,101107.00
2022-09-30T09:17:38.896Z,101115.00
2022-09-30T09:20:19.162Z,101112.00
2022-09-30T09:22:53.957Z,101106.00
2022-09-30T09:25:34.159Z,101110.00
2022-09-30T09:28:09.393Z,101106.00
2022-09-30T09:30:45.355Z,101110.00
2022-09-30T09:33:27.858Z,101104.00
2022-09-30T09:36:05.235Z,101106.00
2022-09-30T09:39:10.310Z,101102.00
2022-09-30T09:41:57.276Z,101096.00
2022-09-30T09:44:38.325Z,101108.00
2022-09-30T09:47:19.222Z,101105.00
2022-09-30T09:50:06.380Z,101104.00
2022-09-30T09:53:04.177Z,101108.00
2022-09-30T09:55:37.067Z,101112.00
2022-09-30T09:58:10.898Z,101096.00
2022-09-30T10:00:51.796Z,101100.00
2022-09-30T10:03:28.416Z,101101.00
2022-09-30T10:06:09.571Z,101092.00
2022-09-30T10:08:44.907Z,101094.00
2022-09-30T10:11:22.737Z,101092.00
2022-09-30T10:13:57.848Z,101092.00
2022-09-30T10:16:41.213Z,101091.00
2022-09-30T10:19:30.880Z,101090.00
2022-09-30T10:22:18.886Z,101088.00
2022-09-30T10:24:51.891Z,101090.00
2022-09-30T10:27:37.978Z,101100.00
2022-09-30T10:30:11.248Z,101088.00
2022-09-30T10:32:44.201Z,101092.00
2022-09-30T10:35:24.992Z,101083.00
2022-09-30T10:37:58.391Z,101084.00
2022-09-30T10:40:33.078Z,101090.00
2022-09-30T10:43:05.982Z,101087.00
2022-09-30T10:45:40.863Z,101083.00
2022-09-30T10:48:15.675Z,101077.00
2022-09-30T10:51:00.893Z,101084.00
2022-09-30T10:53:35.784Z,101080.00
2022-09-30T10:56:09.031Z,101079.00
2022-09-30T11:01:37.128Z,101067.00
2022-09-30T11:04:23.831Z,101070.00
2022-09-30T11:06:58.578Z,101070.00
2022-09-30T11:09:45.856Z,101078.00
2022-09-30T11:12:43.090Z,101078.00
2022-09-30T11:15:21.269Z,101070.00
2022-09-30T11:17:56.909Z,101076.00
2022-09-30T11:20:35.512Z,101066.00
2022-09-30T11:23:22.368Z,101063.00
2022-09-30T11:26:13.691Z,101067.00
2022-09-30T11:29:17.192Z,101071.00
2022-09-30T11:31:55.421Z,101072.00
2022-09-30T11:34:42.557Z,101070.00
2022-09-30T11:37:29.070Z,101070.00
2022-09-30T11:40:34.036Z,101064.00
2022-09-30T11:43:12.193Z,101063.00
2022-09-30T11:46:02.112Z,101062.00
2022-09-30T11:48:39.815Z,101056.00
2022-09-30T11:51:34.426Z,101056.00
2022-09-30T11:54:25.778Z,101061.00
2022-09-30T11:57:00.778Z,101062.00
2022-09-30T11:59:35.695Z,101062.00
2022-09-30T12:02:11.060Z,101063.00
2022-09-30T12:04:46.217Z,101063.00
2022-09-30T12:07:26.906Z,101056.00
2022-09-30T12:10:04.654Z,101058.00
2022-09-30T12:12:37.827Z,101058.00
2022-09-30T12:15:12.665Z,101065.00
2022-09-30T12:17:47.545Z,101062.00
2022-09-30T12:20:43.111Z,101057.00
2022-09-30T12:23:21.042Z,101053.00
2022-09-30T12:25:58.543Z,101051.00
2022-09-30T12:28:57.923Z,101055.00
2022-09-30T12:31:47.716Z,101050.00
2022-09-30T12:34:43.917Z,101048.00
2022-09-30T12:37:47.597Z,101052.00
2022-09-30T12:40:34.300Z,101042.00
2022-09-30T12:43:21.320Z,101027.00
2022-09-30T12:45:57.119Z,101014.00
2022-09-30T12:48:32.312Z,101005.00
2022-09-30T12:51:06.043Z,101009.00
2022-09-30T12:53:41.012Z,101002.00
2022-09-30T12:56:15.655Z,100996.00
2022-09-30T12:58:50.596Z,100991.00
2022-09-30T13:01:28.200Z,100993.00
2022-09-30T13:04:06.380Z,100985.00
2022-09-30T13:06:53.397Z,100973.00
2022-09-30T13:09:28.014Z,100973.00
2022-09-30T13:12:03.050Z,100968.00
2022-09-30T13:14:41.364Z,100968.00
2022-09-30T13:17:16.386Z,100969.00
2022-09-30T13:19:52.206Z,100965.00
2022-09-30T13:22:28.425Z,100957.00
2022-09-30T13:25:06.525Z,100955.00
2022-09-30T13:27:50.511Z,100954.00
2022-09-30T13:30:27.405Z,100950.00
2022-09-30T13:33:03.289Z,100962.00
2022-09-30T13:35:37.787Z,100960.00
2022-09-30T13:38:19.312Z,100958.00
2022-09-30T13:41:02.174Z,100956.00
2022-09-30T13:43:49.707Z,100956.00
2022-09-30T13:46:31.927Z,100947.00
2022-09-30T13:49:07.032Z,100949.00
2022-09-30T13:51:42.010Z,100948.00
2022-09-30T13:54:29.076Z,100935.00
2022-09-30T13:57:03.250Z,100934.00
2022-09-30T13:59:43.724Z,100933.00
2022-09-30T14:02:35.922Z,100930.00
2022-09-30T14:05:28.959Z,100925.00
2022-09-30T14:08:24.486Z,100924.00
2022-09-30T14:11:08.117Z,100919.00
2022-09-30T14:14:03.927Z,100918.00
2022-09-30T14:16:58.606Z,100918.00
2022-09-30T14:19:53.258Z,100911.00
2022-09-30T14:22:29.071Z,100903.00
2022-09-30T14:25:02.643Z,100912.00
2022-09-30T14:27:40.723Z,100901.00
2022-09-30T14:30:33.475Z,100900.00
2022-09-30T14:33:17.266Z,100893.00
2022-09-30T14:35:52.584Z,100895.00
2022-09-30T14:38:31.093Z,100891.00
2022-09-30T14:41:11.920Z,100890.00
2022-09-30T14:43:47.194Z,100870.00
2022-09-30T14:46:30.957Z,100881.00
2022-09-30T14:49:07.186Z,100877.00
2022-09-30T14:51:43.516Z,100882.00
2022-09-30T14:54:21.665Z,100878.00
2022-09-30T14:56:56.730Z,100874.00
2022-09-30T14:59:32.012Z,100871.00
2022-09-30T15:02:07.106Z,100870.00
2022-09-30T15:04:45.117Z,100865.00
2022-09-30T15:07:18.103Z,100859.00
2022-09-30T15:09:52.906Z,100860.00
2022-09-30T15:12:28.262Z,100863.00
2022-09-30T15:15:03.207Z,100862.00
2022-09-30T15:17:41.010Z,100868.00
2022-09-30T15:20:38.546Z,100858.00
2022-09-30T15:23:13.210Z,100861.00
2022-09-30T15:25:49.138Z,100848.00
2022-09-30T15:28:20.570Z,100853.00
2022-09-30T15:30:55.414Z,100849.00
2022-09-30T15:33:30.883Z,100846.00
2022-09-30T15:36:20.935Z,100836.00
2022-09-30T15:38:55.392Z,100848.00
2022-09-30T15:41:29.107Z,100839.00
2022-09-30T15:44:03.179Z,100834.00
2022-09-30T15:46:38.834Z,100839.00
2022-09-30T15:49:22.580Z,100839.00
2022-09-30T15:51:55.604Z,100835.00
2022-09-30T15:54:36.645Z,100839.00
2022-09-30T15:57:11.470Z,100831.00
2022-09-30T16:00:03.068Z,100827.00
2022-09-30T16:02:36.242Z,100821.00
2022-09-30T16:05:10.119Z,100821.00
2022-09-30T16:07:44.283Z,100822.00
2022-09-30T16:10:22.035Z,100816.00
2022-09-30T16:12:54.969Z,100815.00
2022-09-30T16:15:27.983Z,100816.00
2022-09-30T16:18:01.055Z,100805.00
2022-09-30T16:20:33.845Z,100818.00
2022-09-30T16:23:07.666Z,100818.00
2022-09-30T16:25:40.626Z,100817.00
2022-09-30T16:28:17.961Z,100809.00
2022-09-30T16:30:57.444Z,100805.00
2022-09-30T16:33:30.376Z,100802.00
2022-09-30T16:36:03.338Z,100798.00
2022-09-30T16:38:36.264Z,100801.00
2022-09-30T16:41:13.383Z,100801.00
2022-09-30T16:43:46.401Z,100802.00
2022-09-30T16:46:19.350Z,100793.00
2022-09-30T16:48:52.973Z,100797.00
2022-09-30T16:51:25.855Z,100784.00
2022-09-30T16:53:58.973Z,100779.00
2022-09-30T16:56:33.562Z,100791.00
2022-09-30T16:59:07.283Z,100781.00
2022-09-30T17:01:40.946Z,100781.00
2022-09-30T17:04:17.570Z,100779.00
2022-09-30T17:06:51.886Z,100790.00
2022-09-30T17:09:24.979Z,100781.00
2022-09-30T17:11:58.223Z,100781.00
2022-09-30T17:14:31.362Z,100774.00
2022-09-30T17:17:04.482Z,100778.00
2022-09-30T17:19:37.427Z,100783.00
2022-09-30T17:22:10.534Z,100767.00
2022-09-30T17:24:43.484Z,100788.00
2022-09-30T17:27:16.386Z,100783.00
2022-09-30T17:29:49.313Z,100772.00
2022-09-30T17:32:22.253Z,100770.00
2022-09-30T17:34:57.731Z,100773.00
2022-09-30T17:37:29.254Z,100773.00
2022-09-30T17:40:02.862Z,100771.00
2022-09-30T17:42:56.700Z,100784.00
2022-09-30T17:45:28.344Z,100771.00
2022-09-30T17:48:03.597Z,100770.00
2022-09-30T17:50:35.687Z,100766.00
2022-09-30T17:53:09.508Z,100772.00
2022-09-30T17:55:42.763Z,100786.00
2022-09-30T17:58:15.702Z,100781.00
2022-09-30T18:00:49.052Z,100784.00
2022-09-30T18:03:22.028Z,100788.00
2022-09-30T18:05:58.049Z,100785.00
2022-09-30T18:08:31.032Z,100788.00
2022-09-30T18:11:03.784Z,100779.00
2022-09-30T18:13:36.704Z,100776.00
2022-09-30T18:16:12.761Z,100780.00
2022-09-30T18:18:45.684Z,100789.00
2022-09-30T18:21:18.553Z,100785.00
2022-09-30T18:23:53.326Z,100785.00
2022-09-30T18:26:26.178Z,100776.00
2022-09-30T18:29:01.209Z,100772.00
2022-09-30T18:31:35.906Z,100777.00
2022-09-30T18:34:09.718Z,100770.00
2022-09-30T18:36:42.663Z,100777.00
2022-09-30T18:39:15.663Z,100767.00
2022-09-30T18:41:49.929Z,100771.00
2022-09-30T18:44:22.827Z,100783.00
2022-09-30T18:46:59.474Z,100770.00
2022-09-30T18:49:32.771Z,100771.00
2022-09-30T18:52:06.500Z,100775.00
2022-09-30T18:54:40.675Z,100771.00
2022-09-30T18:57:13.590Z,100775.00
2022-09-30T18:59:46.319Z,100774.00
2022-09-30T19:02:20.831Z,100782.00
2022-09-30T19:04:55.824Z,100765.00
2022-09-30T19:07:32.206Z,100761.00
2022-09-30T19:10:05.653Z,100756.00
2022-09-30T19:12:39.253Z,100768.00
2022-09-30T19:15:13.750Z,100757.00
2022-09-30T19:17:47.162Z,100765.00
2022-09-30T19:20:20.155Z,100764.00
2022-09-30T19:22:53.871Z,100759.00
2022-09-30T19:25:26.836Z,100759.00
2022-09-30T19:27:59.986Z,100745.00
2022-09-30T19:30:32.953Z,100752.00
2022-09-30T19:33:05.947Z,100749.00
2022-09-30T19:35:40.981Z,100757.00
2022-09-30T19:38:14.221Z,100753.00
2022-09-30T19:40:47.174Z,100746.00
2022-09-30T19:43:21.378Z,100754.00
2022-09-30T19:46:02.255Z,100746.00
2022-09-30T19:48:39.932Z,100752.00
2022-09-30T19:51:13.339Z,100755.00
2022-09-30T19:54:01.631Z,100768.00
2022-09-30T19:56:24.523Z,100778.00
2022-09-30T19:58:58.906Z,100761.00
2022-09-30T20:01:33.054Z,100764.00
2022-09-30T20:04:14.384Z,100758.00
2022-09-30T20:06:41.538Z,100745.00
2022-09-30T20:09:15.131Z,100744.00
2022-09-30T20:11:48.088Z,100743.00
2022-09-30T20:14:38.822Z,100748.00
2022-09-30T20:17:11.964Z,100755.00
2022-09-30T20:19:45.138Z,100747.00
2022-09-30T20:22:18.946Z,100746.00
2022-09-30T20:24:51.929Z,100740.00
2022-09-30T20:27:25.376Z,100750.00
2022-09-30T20:29:58.321Z,100745.00
2022-09-30T20:32:32.523Z,100752.00
2022-09-30T20:35:05.498Z,100743.00
2022-09-30T20:37:38.641Z,100746.00
2022-09-30T20:40:12.328Z,100754.00
2022-09-30T20:42:45.167Z,100750.00
2022-09-30T20:45:19.583Z,100754.00
2022-09-30T20:47:52.497Z,100760.00
2022-09-30T20:50:40.970Z,100767.00
2022-09-30T20:53:15.979Z,100761.00
2022-09-30T20:55:49.063Z,100747.00
2022-09-30T20:58:22.553Z,100759.00
2022-09-30T21:00:55.480Z,100755.00
2022-09-30T21:03:31.766Z,100760.00
2022-09-30T21:06:04.936Z,100744.00
2022-09-30T21:08:41.804Z,100741.00
2022-09-30T21:11:15.683Z,100745.00
2022-09-30T21:13:50.095Z,100727.00
2022-09-30T21:16:27.621Z,100727.00
2022-09-30T21:19:00.668Z,100715.00
2022-09-30T21:21:35.407Z,100728.00
2022-09-30T21:24:08.651Z,100735.00
2022-09-30T21:26:41.597Z,100736.00
2022-09-30T21:29:14.618Z,100732.00
2022-09-30T21:31:47.627Z,100732.00
2022-09-30T21:34:20.554Z,100727.00
2022-09-30T21:36:53.612Z,100730.00
2022-09-30T21:39:26.424Z,100719.00
2022-09-30T21:41:59.395Z,100724.00
2022-09-30T21:44:32.275Z,100721.00
2022-09-30T21:47:05.711Z,100717.00
2022-09-30T21:49:39.153Z,100712.00
2022-09-30T21:52:12.604Z,100713.00
2022-09-30T21:54:45.819Z,100720.00
2022-09-30T21:57:18.795Z,100701.00
2022-09-30T21:59:51.614Z,100694.00
2022-09-30T22:02:24.616Z,100709.00
2022-09-30T22:04:57.714Z,100693.00
2022-09-30T22:07:30.735Z,100692.00
2022-09-30T22:10:03.980Z,100689.00
2022-09-30T22:12:36.950Z,100679.00
2022-09-30T22:15:10.383Z,100678.00
2022-09-30T22:17:43.262Z,100667.00
2022-09-30T22:20:16.188Z,100648.00
2022-09-30T22:22:50.148Z,100636.00
2022-09-30T22:25:24.206Z,100640.00
2022-09-30T22:27:57.103Z,100637.00
2022-09-30T22:30:31.603Z,100643.00
2022-09-30T22:33:22.145Z,100643.00
2022-09-30T22:36:13.258Z,100642.00
2022-09-30T22:38:46.278Z,100649.00
2022-09-30T22:41:20.209Z,100644.00
2022-09-30T22:43:53.193Z,100641.00
2022-09-30T22:46:26.481Z,100645.00
2022-09-30T22:49:00.640Z,100640.00
2022-09-30T22:51:34.657Z,100634.00
2022-09-30T22:54:07.961Z,100627.00
2022-09-30T22:56:40.900Z,100634.00
2022-09-30T22:59:14.341Z,100617.00
2022-09-30T23:01:47.283Z,100620.00
2022-09-30T23:04:25.254Z,100608.00
2022-09-30T23:06:59.049Z,100591.00
2022-09-30T23:09:33.016Z,100603.00
2022-09-30T23:12:07.032Z,100593.00
2022-09-30T23:14:40.410Z,100592.00
2022-09-30T23:17:14.304Z,100580.00
2022-09-30T23:19:47.324Z,100582.00
2022-09-30T23:22:20.474Z,100558.00
2022-09-30T23:24:53.361Z,100576.00
2022-09-30T23:27:26.247Z,100560.00
2022-09-30T23:29:59.182Z,100556.00
2022-09-30T23:32:32.351Z,100561.00
2022-09-30T23:35:06.066Z,100549.00
2022-09-30T23:37:38.994Z,100564.00
2022-09-30T23:40:12.883Z,100559.00
2022-09-30T23:42:46.243Z,100549.00
2022-09-30T23:45:19.608Z,100520.00
2022-09-30T23:47:52.509Z,100531.00
2022-09-30T23:50:29.662Z,100542.00
2022-09-30T23:53:02.364Z,100521.00
2022-09-30T23:55:35.246Z,100514.00
2022-09-30T23:58:09.343Z,100505.00
